createdAt,value
2017-05-26T00:00:01.071Z,9.70
2017-05-26T00:02:29.140Z,9.80
2017-05-26T00:04:57.557Z,9.70
2017-05-26T00:07:25.214Z,9.60
2017-05-26T00:09:52.884Z,9.70
2017-05-26T00:12:20.534Z,9.60
2017-05-26T00:14:48.589Z,9.60
2017-05-26T00:17:16.238Z,9.60
2017-05-26T00:19:43.896Z,9.60
2017-05-26T00:22:11.572Z,9.50
2017-05-26T00:24:39.994Z,9.50
2017-05-26T00:27:08.036Z,9.50
2017-05-26T00:29:35.697Z,9.50
2017-05-26T00:32:03.496Z,9.50
2017-05-26T00:34:31.178Z,9.50
2017-05-26T00:36:58.836Z,9.60
2017-05-26T00:39:26.793Z,9.60
2017-05-26T00:41:54.449Z,9.60
2017-05-26T00:44:22.110Z,9.70
2017-05-26T00:46:50.028Z,9.60
2017-05-26T00:49:18.538Z,9.60
2017-05-26T00:51:46.563Z,9.50
2017-05-26T00:54:14.214Z,9.50
2017-05-26T00:56:41.865Z,9.50
2017-05-26T00:59:09.552Z,9.50
2017-05-26T01:01:37.211Z,9.40
2017-05-26T01:04:05.288Z,9.40
2017-05-26T01:06:32.946Z,9.40
2017-05-26T01:09:00.600Z,9.40
2017-05-26T01:11:28.270Z,9.30
2017-05-26T01:13:55.924Z,9.30
2017-05-26T01:16:23.954Z,9.20
2017-05-26T01:18:51.594Z,9.20
2017-05-26T01:21:19.345Z,9.20
2017-05-26T01:23:47.292Z,9.20
2017-05-26T01:26:15.711Z,9.20
2017-05-26T01:28:43.371Z,9.10
2017-05-26T01:31:11.374Z,9.10
2017-05-26T01:33:40.162Z,9.10
2017-05-26T01:36:07.810Z,9.00
2017-05-26T01:38:35.489Z,9.10
2017-05-26T01:41:03.134Z,9.00
2017-05-26T01:43:31.160Z,9.00
2017-05-26T01:45:58.833Z,9.00
2017-05-26T01:48:26.562Z,8.90
2017-05-26T01:50:54.232Z,8.90
2017-05-26T01:53:21.906Z,8.90
2017-05-26T01:55:49.877Z,8.90
2017-05-26T01:58:17.532Z,8.80
2017-05-26T02:00:45.944Z,8.70
2017-05-26T02:03:13.633Z,8.70
2017-05-26T02:05:42.046Z,8.90
2017-05-26T02:08:10.045Z,8.80
2017-05-26T02:10:37.706Z,8.90
2017-05-26T02:13:06.120Z,9.00
2017-05-26T02:15:34.565Z,9.00
2017-05-26T02:18:02.221Z,9.00
2017-05-26T02:20:30.345Z,9.00
2017-05-26T02:22:57.993Z,9.00
2017-05-26T02:25:26.411Z,9.00
2017-05-26T02:27:54.090Z,8.90
2017-05-26T02:30:21.736Z,8.90
2017-05-26T02:32:49.705Z,9.00
2017-05-26T02:35:17.357Z,9.00
2017-05-26T02:37:45.043Z,9.00
2017-05-26T02:40:12.721Z,9.00
2017-05-26T02:42:40.365Z,8.90
2017-05-26T02:45:08.330Z,8.90
2017-05-26T02:47:35.990Z,8.90
2017-05-26T02:50:03.641Z,8.90
2017-05-26T02:52:31.316Z,9.00
2017-05-26T02:54:59.733Z,9.00
2017-05-26T02:57:27.686Z,9.00
2017-05-26T02:59:55.338Z,9.00
2017-05-26T03:02:23.000Z,9.00
2017-05-26T03:04:50.684Z,9.10
2017-05-26T03:07:18.336Z,9.20
2017-05-26T03:09:46.349Z,9.10
2017-05-26T03:12:14.021Z,9.10
2017-05-26T03:14:41.671Z,9.10
2017-05-26T03:17:09.352Z,9.00
2017-05-26T03:19:37.009Z,9.00
2017-05-26T03:22:05.796Z,9.00
2017-05-26T03:24:33.454Z,9.00
2017-05-26T03:27:01.107Z,9.00
2017-05-26T03:29:28.787Z,9.00
2017-05-26T03:31:56.437Z,9.10
2017-05-26T03:34:24.435Z,9.10
2017-05-26T03:36:52.091Z,9.10
2017-05-26T03:39:20.517Z,9.10
2017-05-26T03:41:48.202Z,9.10
2017-05-26T03:44:15.862Z,9.20
2017-05-26T03:46:43.830Z,9.10
2017-05-26T03:49:11.497Z,9.10
2017-05-26T03:51:39.154Z,9.20
2017-05-26T03:54:07.593Z,9.40
2017-05-26T03:56:35.251Z,9.30
2017-05-26T03:59:03.193Z,9.50
2017-05-26T04:01:30.847Z,9.50
2017-05-26T04:03:58.496Z,9.60
2017-05-26T04:06:26.161Z,9.70
2017-05-26T04:08:53.819Z,9.70
2017-05-26T04:11:21.793Z,9.80
2017-05-26T04:13:49.445Z,9.80
2017-05-26T04:16:17.102Z,9.90
2017-05-26T04:18:44.798Z,10.00
2017-05-26T04:21:13.004Z,10.10
2017-05-26T04:23:41.050Z,10.20
2017-05-26T04:26:08.813Z,10.20
2017-05-26T04:28:36.569Z,10.30
2017-05-26T04:31:04.256Z,10.40
2017-05-26T04:33:32.690Z,10.60
2017-05-26T04:36:00.630Z,10.60
2017-05-26T04:38:28.289Z,10.90
2017-05-26T04:40:55.956Z,11.10
2017-05-26T04:43:23.721Z,11.20
2017-05-26T04:45:52.008Z,11.40
2017-05-26T04:48:20.007Z,11.50
2017-05-26T04:50:48.416Z,11.70
2017-05-26T04:53:16.846Z,11.80
2017-05-26T04:55:44.533Z,11.70
2017-05-26T04:58:12.923Z,11.90
2017-05-26T05:00:40.871Z,12.00
2017-05-26T05:03:08.541Z,12.30
2017-05-26T05:05:36.201Z,12.50
2017-05-26T05:08:06.010Z,12.90
2017-05-26T05:10:34.433Z,13.30
2017-05-26T05:13:02.488Z,13.20
2017-05-26T05:15:30.902Z,14.00
2017-05-26T05:17:59.444Z,13.90
2017-05-26T05:20:27.124Z,14.20
2017-05-26T05:22:55.879Z,14.60
2017-05-26T05:25:25.305Z,14.80
2017-05-26T05:27:53.965Z,15.20
2017-05-26T05:30:22.405Z,15.50
2017-05-26T05:32:51.810Z,15.40
2017-05-26T05:35:20.274Z,15.80
2017-05-26T05:37:48.276Z,16.00
2017-05-26T05:40:15.933Z,16.20
2017-05-26T05:42:43.710Z,16.30
2017-05-26T05:45:11.580Z,16.20
2017-05-26T05:47:39.641Z,16.30
2017-05-26T05:50:07.663Z,16.30
2017-05-26T05:52:35.322Z,16.30
2017-05-26T05:55:03.017Z,16.30
2017-05-26T05:57:30.900Z,16.30
2017-05-26T05:59:59.421Z,16.90
2017-05-26T06:02:27.394Z,16.90
2017-05-26T06:04:55.449Z,17.30
2017-05-26T06:07:23.117Z,17.40
2017-05-26T06:09:50.794Z,18.20
2017-05-26T06:12:18.725Z,19.00
2017-05-26T06:14:46.660Z,19.50
2017-05-26T06:17:14.285Z,19.90
2017-05-26T06:19:41.913Z,20.20
2017-05-26T06:22:09.717Z,20.40
2017-05-26T06:24:38.122Z,21.30
2017-05-26T06:27:06.605Z,21.30
2017-05-26T06:29:34.988Z,22.80
2017-05-26T06:32:02.878Z,22.70
2017-05-26T06:34:31.338Z,22.60
2017-05-26T06:36:58.966Z,22.50
2017-05-26T06:39:26.913Z,22.70
2017-05-26T06:41:55.337Z,22.60
2017-05-26T06:44:23.733Z,22.50
2017-05-26T06:46:51.386Z,22.40
2017-05-26T06:49:19.030Z,21.40
2017-05-26T06:51:46.956Z,20.70
2017-05-26T06:54:14.579Z,20.50
2017-05-26T06:56:42.972Z,20.50
2017-05-26T06:59:10.613Z,20.50
2017-05-26T07:01:38.327Z,20.40
2017-05-26T07:04:06.346Z,20.50
2017-05-26T07:06:33.981Z,20.80
2017-05-26T07:09:01.665Z,21.80
2017-05-26T07:11:29.347Z,22.60
2017-05-26T07:13:57.738Z,23.40
2017-05-26T07:16:25.697Z,23.30
2017-05-26T07:18:53.329Z,23.90
2017-05-26T07:21:21.722Z,24.00
2017-05-26T07:23:49.376Z,24.00
2017-05-26T07:26:16.993Z,24.40
2017-05-26T07:28:44.955Z,25.00
2017-05-26T07:31:13.339Z,25.60
2017-05-26T07:33:40.989Z,25.50
2017-05-26T07:36:08.649Z,26.00
2017-05-26T07:38:36.275Z,26.00
2017-05-26T07:41:04.211Z,25.60
2017-05-26T07:43:31.898Z,25.50
2017-05-26T07:45:59.639Z,25.10
2017-05-26T07:48:27.287Z,24.50
2017-05-26T07:50:54.909Z,24.00
2017-05-26T07:53:22.869Z,24.00
2017-05-26T07:55:50.636Z,24.50
2017-05-26T07:58:19.201Z,23.30
2017-05-26T08:00:46.884Z,23.30
2017-05-26T08:03:14.522Z,22.60
2017-05-26T08:05:42.516Z,23.40
2017-05-26T08:08:10.152Z,24.00
2017-05-26T08:10:37.821Z,24.00
2017-05-26T08:13:05.621Z,24.90
2017-05-26T08:15:33.237Z,25.20
2017-05-26T08:18:01.171Z,25.90
2017-05-26T08:20:29.561Z,25.10
2017-05-26T08:22:57.222Z,25.00
2017-05-26T08:25:25.641Z,24.30
2017-05-26T08:27:53.277Z,24.20
2017-05-26T08:30:21.245Z,24.70
2017-05-26T08:32:48.866Z,24.50
2017-05-26T08:35:16.500Z,24.50
2017-05-26T08:37:44.154Z,23.90
2017-05-26T08:40:11.794Z,23.40
2017-05-26T08:42:39.801Z,22.80
2017-05-26T08:45:07.534Z,23.90
2017-05-26T08:47:35.165Z,23.70
2017-05-26T08:50:02.851Z,24.00
2017-05-26T08:52:30.522Z,24.80
2017-05-26T08:54:58.205Z,25.80
2017-05-26T08:57:26.852Z,25.50
2017-05-26T08:59:54.477Z,25.50
2017-05-26T09:02:22.120Z,25.30
2017-05-26T09:04:50.903Z,25.90
2017-05-26T09:07:19.336Z,26.60
2017-05-26T09:09:47.806Z,25.80
2017-05-26T09:12:15.482Z,25.80
2017-05-26T09:14:43.117Z,25.00
2017-05-26T09:17:11.073Z,24.60
2017-05-26T09:19:38.738Z,24.70
2017-05-26T09:22:06.489Z,23.60
2017-05-26T09:24:34.948Z,23.60
2017-05-26T09:27:03.107Z,23.50
2017-05-26T09:29:31.997Z,24.00
2017-05-26T09:32:00.428Z,25.30
2017-05-26T09:34:28.766Z,25.30
2017-05-26T09:36:56.506Z,26.10
2017-05-26T09:39:24.125Z,26.50
2017-05-26T09:41:52.829Z,28.00
2017-05-26T09:44:20.569Z,27.90
2017-05-26T09:46:48.205Z,27.40
2017-05-26T09:49:15.848Z,27.40
2017-05-26T09:51:43.477Z,26.80
2017-05-26T09:54:11.465Z,25.90
2017-05-26T09:56:39.087Z,25.50
2017-05-26T09:59:06.713Z,25.60
2017-05-26T10:01:34.357Z,25.20
2017-05-26T10:04:01.981Z,25.80
2017-05-26T10:06:30.388Z,26.00
2017-05-26T10:08:58.017Z,26.10
2017-05-26T10:11:25.650Z,25.60
2017-05-26T10:13:53.316Z,25.30
2017-05-26T10:16:21.051Z,25.90
2017-05-26T10:18:48.996Z,25.90
2017-05-26T10:21:16.622Z,25.50
2017-05-26T10:23:45.032Z,25.00
2017-05-26T10:26:12.699Z,24.90
2017-05-26T10:28:40.325Z,25.00
2017-05-26T10:31:09.040Z,25.70
2017-05-26T10:33:36.658Z,25.60
2017-05-26T10:36:04.341Z,26.30
2017-05-26T10:38:32.005Z,27.00
2017-05-26T10:40:59.621Z,27.10
2017-05-26T10:43:27.598Z,26.50
2017-05-26T10:45:55.221Z,25.90
2017-05-26T10:48:22.909Z,25.60
2017-05-26T10:50:50.544Z,25.30
2017-05-26T10:53:18.226Z,25.10
2017-05-26T10:55:46.222Z,25.10
2017-05-26T10:58:13.840Z,25.30
2017-05-26T11:00:41.453Z,25.60
2017-05-26T11:03:09.093Z,25.90
2017-05-26T11:05:36.744Z,25.40
2017-05-26T11:08:04.998Z,25.30
2017-05-26T11:10:32.717Z,25.60
2017-05-26T11:13:00.391Z,26.20
2017-05-26T11:15:28.037Z,26.90
2017-05-26T11:17:55.661Z,27.00
2017-05-26T11:20:23.694Z,26.70
2017-05-26T11:22:51.317Z,27.00
2017-05-26T11:25:19.025Z,27.10
2017-05-26T11:27:46.713Z,26.30
2017-05-26T11:30:15.169Z,25.90
2017-05-26T11:32:43.167Z,25.90
2017-05-26T11:35:10.799Z,25.90
2017-05-26T11:37:38.422Z,25.60
2017-05-26T11:40:06.070Z,25.90
2017-05-26T11:42:34.475Z,26.30
2017-05-26T11:45:02.401Z,26.20
2017-05-26T11:47:30.024Z,26.20
2017-05-26T11:49:58.413Z,25.10
2017-05-26T11:52:26.070Z,25.10
2017-05-26T11:54:53.698Z,25.10
2017-05-26T11:57:21.709Z,24.60
2017-05-26T11:59:50.110Z,24.10
2017-05-26T12:02:17.745Z,24.00
2017-05-26T12:04:45.402Z,23.60
2017-05-26T12:07:13.794Z,23.70
2017-05-26T12:09:42.468Z,23.40
2017-05-26T12:12:10.849Z,23.40
2017-05-26T12:14:39.234Z,23.40
2017-05-26T12:17:07.694Z,23.20
2017-05-26T12:19:35.317Z,23.20
2017-05-26T12:22:03.262Z,23.20
2017-05-26T12:24:31.680Z,23.50
2017-05-26T12:26:59.307Z,23.50
2017-05-26T12:29:26.963Z,23.60
2017-05-26T12:31:55.350Z,23.70
2017-05-26T12:34:23.276Z,23.70
2017-05-26T12:36:50.901Z,23.80
2017-05-26T12:39:18.524Z,23.70
2017-05-26T12:41:46.205Z,23.60
2017-05-26T12:44:14.014Z,23.40
2017-05-26T12:46:41.964Z,23.30
2017-05-26T12:49:09.582Z,23.50
2017-05-26T12:51:37.210Z,23.50
2017-05-26T12:54:04.874Z,23.30
2017-05-26T12:56:32.497Z,23.30
2017-05-26T12:59:01.216Z,23.60
2017-05-26T13:01:28.837Z,23.60
2017-05-26T13:03:56.455Z,23.80
2017-05-26T13:06:24.110Z,23.90
2017-05-26T13:08:51.735Z,24.10
2017-05-26T13:11:19.693Z,24.30
2017-05-26T13:13:47.321Z,24.50
2017-05-26T13:16:14.950Z,24.60
2017-05-26T13:18:42.608Z,24.70
2017-05-26T13:21:10.255Z,24.80
2017-05-26T13:23:38.216Z,24.80
2017-05-26T13:26:05.836Z,24.60
2017-05-26T13:28:33.586Z,24.40
2017-05-26T13:31:01.257Z,24.10
2017-05-26T13:33:28.908Z,24.00
2017-05-26T13:35:56.879Z,24.10
2017-05-26T13:38:24.522Z,24.10
2017-05-26T13:40:52.156Z,24.20
2017-05-26T13:43:19.861Z,24.30
2017-05-26T13:45:48.269Z,24.00
2017-05-26T13:48:16.249Z,24.00
2017-05-26T13:50:43.873Z,24.30
2017-05-26T13:53:11.501Z,24.50
2017-05-26T13:55:39.332Z,24.50
2017-05-26T13:58:07.050Z,24.60
2017-05-26T14:00:35.243Z,24.30
2017-05-26T14:03:02.881Z,24.30
2017-05-26T14:05:30.517Z,24.20
2017-05-26T14:07:58.178Z,24.10
2017-05-26T14:10:25.805Z,24.00
2017-05-26T14:12:53.853Z,23.90
2017-05-26T14:15:22.246Z,23.50
2017-05-26T14:17:49.884Z,23.40
2017-05-26T14:20:18.325Z,23.50
2017-05-26T14:22:45.957Z,23.50
2017-05-26T14:25:13.882Z,23.60
2017-05-26T14:27:41.518Z,23.60
2017-05-26T14:30:09.914Z,23.60
2017-05-26T14:32:37.588Z,23.60
2017-05-26T14:35:05.221Z,23.80
2017-05-26T14:37:33.129Z,23.90
2017-05-26T14:40:00.760Z,23.80
2017-05-26T14:42:29.237Z,23.70
2017-05-26T14:44:56.904Z,23.60
2017-05-26T14:47:24.566Z,23.70
2017-05-26T14:49:52.507Z,23.70
2017-05-26T14:52:20.127Z,23.80
2017-05-26T14:54:47.761Z,23.80
2017-05-26T14:57:16.197Z,23.50
2017-05-26T14:59:43.823Z,23.50
2017-05-26T15:02:11.774Z,23.60
2017-05-26T15:04:39.398Z,23.70
2017-05-26T15:07:07.025Z,23.70
2017-05-26T15:09:34.690Z,23.80
2017-05-26T15:12:02.326Z,23.80
2017-05-26T15:14:30.318Z,23.90
2017-05-26T15:16:57.951Z,23.60
2017-05-26T15:19:25.580Z,23.60
2017-05-26T15:21:53.229Z,23.70
2017-05-26T15:24:20.848Z,23.80
2017-05-26T15:26:49.534Z,23.90
2017-05-26T15:29:17.314Z,23.90
2017-05-26T15:31:44.937Z,23.90
2017-05-26T15:34:12.586Z,23.80
2017-05-26T15:36:40.220Z,23.90
2017-05-26T15:39:08.189Z,24.00
2017-05-26T15:41:35.813Z,24.00
2017-05-26T15:44:03.439Z,24.00
2017-05-26T15:46:31.133Z,24.00
2017-05-26T15:48:59.549Z,24.10
2017-05-26T15:51:27.547Z,24.10
2017-05-26T15:53:55.181Z,24.20
2017-05-26T15:56:22.837Z,24.20
2017-05-26T15:58:50.500Z,24.00
2017-05-26T16:01:18.153Z,23.80
2017-05-26T16:03:46.549Z,23.30
2017-05-26T16:06:14.496Z,23.30
2017-05-26T16:08:42.131Z,23.20
2017-05-26T16:11:09.755Z,23.10
2017-05-26T16:13:38.453Z,22.90
2017-05-26T16:16:06.082Z,22.80
2017-05-26T16:18:33.736Z,22.80
2017-05-26T16:21:01.376Z,22.80
2017-05-26T16:23:30.761Z,22.80
2017-05-26T16:25:58.695Z,22.70
2017-05-26T16:28:26.320Z,22.80
2017-05-26T16:30:53.952Z,22.80
2017-05-26T16:33:22.366Z,23.00
2017-05-26T16:35:49.988Z,23.00
2017-05-26T16:38:17.981Z,23.10
2017-05-26T16:40:46.370Z,23.20
2017-05-26T16:43:13.996Z,23.10
2017-05-26T16:45:41.644Z,23.10
2017-05-26T16:48:10.083Z,23.00
2017-05-26T16:50:38.007Z,22.90
2017-05-26T16:53:05.636Z,22.80
2017-05-26T16:55:33.257Z,22.70
2017-05-26T16:58:00.909Z,22.60
2017-05-26T17:00:28.529Z,22.50
2017-05-26T17:02:56.566Z,22.40
2017-05-26T17:05:24.188Z,22.30
2017-05-26T17:07:51.829Z,22.30
2017-05-26T17:10:19.480Z,22.30
2017-05-26T17:12:47.110Z,22.30
2017-05-26T17:15:15.101Z,22.20
2017-05-26T17:17:43.492Z,22.10
2017-05-26T17:20:11.881Z,22.00
2017-05-26T17:22:39.521Z,21.90
2017-05-26T17:25:07.154Z,22.00
2017-05-26T17:27:35.849Z,21.90
2017-05-26T17:30:04.227Z,21.80
2017-05-26T17:32:31.885Z,21.80
2017-05-26T17:34:59.568Z,21.80
2017-05-26T17:37:27.969Z,21.70
2017-05-26T17:39:56.675Z,21.70
2017-05-26T17:42:24.308Z,21.60
2017-05-26T17:44:51.952Z,21.60
2017-05-26T17:47:20.374Z,21.50
2017-05-26T17:49:48.781Z,21.50
2017-05-26T17:52:16.700Z,21.40
2017-05-26T17:54:45.086Z,21.40
2017-05-26T17:57:12.722Z,21.30
2017-05-26T17:59:41.136Z,21.20
2017-05-26T18:02:08.826Z,21.20
2017-05-26T18:04:36.802Z,21.20
2017-05-26T18:07:04.429Z,21.20
2017-05-26T18:09:32.834Z,21.10
2017-05-26T18:12:00.481Z,21.00
2017-05-26T18:14:28.195Z,21.00
2017-05-26T18:16:56.100Z,21.00
2017-05-26T18:19:23.720Z,20.90
2017-05-26T18:21:51.361Z,20.80
2017-05-26T18:24:19.056Z,20.70
2017-05-26T18:26:47.476Z,20.60
2017-05-26T18:29:15.729Z,20.60
2017-05-26T18:31:43.394Z,20.50
2017-05-26T18:34:11.067Z,20.40
2017-05-26T18:36:38.817Z,20.40
2017-05-26T18:39:06.499Z,20.20
2017-05-26T18:41:34.460Z,20.10
2017-05-26T18:44:02.108Z,20.00
2017-05-26T18:46:29.768Z,19.80
2017-05-26T18:48:57.442Z,19.70
2017-05-26T18:51:25.092Z,19.70
2017-05-26T18:53:53.222Z,19.50
2017-05-26T18:56:20.864Z,19.40
2017-05-26T18:58:48.523Z,19.30
2017-05-26T19:01:16.207Z,19.20
2017-05-26T19:03:43.885Z,19.10
2017-05-26T19:06:11.877Z,18.90
2017-05-26T19:08:39.528Z,18.80
2017-05-26T19:11:08.040Z,18.60
2017-05-26T19:13:35.908Z,18.50
2017-05-26T19:16:04.348Z,18.30
2017-05-26T19:18:32.307Z,18.30
2017-05-26T19:21:00.721Z,18.10
2017-05-26T19:23:28.364Z,18.10
2017-05-26T19:25:56.850Z,17.90
2017-05-26T19:28:24.539Z,17.90
2017-05-26T19:30:52.481Z,17.80
2017-05-26T19:33:20.144Z,17.80
2017-05-26T19:35:48.558Z,17.60
2017-05-26T19:38:16.229Z,17.50
2017-05-26T19:40:43.872Z,17.50
2017-05-26T19:43:12.629Z,17.30
2017-05-26T19:45:41.053Z,17.20
2017-05-26T19:48:08.718Z,17.10
2017-05-26T19:50:36.398Z,17.10
2017-05-26T19:53:04.052Z,17.00
2017-05-26T19:55:32.770Z,16.90
2017-05-26T19:58:00.421Z,16.80
2017-05-26T20:00:28.124Z,16.80
2017-05-26T20:02:56.570Z,16.70
2017-05-26T20:05:24.222Z,16.70
2017-05-26T20:07:52.269Z,16.70
2017-05-26T20:10:19.934Z,16.50
2017-05-26T20:12:47.593Z,16.50
2017-05-26T20:15:15.266Z,16.50
2017-05-26T20:17:42.912Z,16.40
2017-05-26T20:20:11.695Z,16.20
2017-05-26T20:22:40.253Z,16.20
2017-05-26T20:25:07.897Z,16.20
2017-05-26T20:27:36.346Z,16.20
2017-05-26T20:30:04.761Z,16.20
2017-05-26T20:32:33.468Z,16.20
2017-05-26T20:35:01.252Z,16.10
2017-05-26T20:37:28.920Z,16.00
2017-05-26T20:39:56.601Z,15.90
2017-05-26T20:42:25.025Z,15.80
2017-05-26T20:44:53.006Z,15.70
2017-05-26T20:47:20.660Z,15.70
2017-05-26T20:49:48.316Z,15.70
2017-05-26T20:52:15.990Z,15.60
2017-05-26T20:54:43.648Z,15.50
2017-05-26T20:57:12.361Z,15.40
2017-05-26T20:59:40.018Z,15.40
2017-05-26T21:02:07.678Z,15.30
2017-05-26T21:04:36.138Z,15.20
2017-05-26T21:07:03.868Z,15.10
2017-05-26T21:09:31.881Z,15.20
2017-05-26T21:11:59.596Z,15.20
2017-05-26T21:14:28.216Z,15.10
2017-05-26T21:16:55.914Z,15.00
2017-05-26T21:19:23.561Z,15.00
2017-05-26T21:21:52.354Z,15.00
2017-05-26T21:24:20.022Z,15.00
2017-05-26T21:26:48.436Z,15.00
2017-05-26T21:29:16.894Z,14.90
2017-05-26T21:31:44.546Z,14.80
2017-05-26T21:34:13.348Z,14.80
2017-05-26T21:36:40.995Z,14.70
2017-05-26T21:39:08.655Z,14.70
2017-05-26T21:41:36.370Z,14.70
2017-05-26T21:44:04.786Z,14.60
2017-05-26T21:46:32.873Z,14.60
2017-05-26T21:49:01.325Z,14.60
2017-05-26T21:51:29.744Z,14.60
2017-05-26T21:53:57.425Z,14.60
2017-05-26T21:56:25.079Z,14.70
2017-05-26T21:58:53.053Z,14.70
2017-05-26T22:01:20.703Z,14.70
2017-05-26T22:03:48.362Z,14.70
2017-05-26T22:06:16.036Z,14.70
2017-05-26T22:08:43.685Z,14.60
2017-05-26T22:11:11.700Z,14.50
2017-05-26T22:13:39.378Z,14.50
2017-05-26T22:16:07.048Z,14.40
2017-05-26T22:18:34.731Z,14.40
2017-05-26T22:21:03.144Z,14.30
2017-05-26T22:23:31.156Z,14.30
2017-05-26T22:25:58.808Z,14.30
2017-05-26T22:28:27.227Z,14.20
2017-05-26T22:30:54.904Z,14.10
2017-05-26T22:33:23.325Z,14.20
2017-05-26T22:35:51.332Z,14.10
2017-05-26T22:38:19.092Z,14.10
2017-05-26T22:40:47.508Z,14.00
2017-05-26T22:43:15.181Z,14.00
2017-05-26T22:45:42.835Z,14.00
2017-05-26T22:48:10.802Z,14.00
2017-05-26T22:50:38.453Z,13.90
2017-05-26T22:53:06.109Z,13.90
2017-05-26T22:55:33.787Z,13.80
2017-05-26T22:58:01.444Z,13.80
2017-05-26T23:00:29.384Z,13.80
2017-05-26T23:02:57.040Z,13.80
2017-05-26T23:05:24.690Z,13.70
2017-05-26T23:07:52.376Z,13.70
2017-05-26T23:10:20.024Z,13.70
2017-05-26T23:12:47.977Z,13.60
2017-05-26T23:15:16.398Z,13.50
2017-05-26T23:17:44.057Z,13.40
2017-05-26T23:20:12.509Z,13.40
2017-05-26T23:22:40.161Z,13.40
2017-05-26T23:25:08.092Z,13.40
2017-05-26T23:27:35.741Z,13.30
2017-05-26T23:30:04.169Z,13.30
2017-05-26T23:32:31.842Z,13.30
2017-05-26T23:34:59.509Z,13.30
2017-05-26T23:37:27.926Z,13.20
2017-05-26T23:39:56.086Z,13.10
2017-05-26T23:42:23.741Z,13.20
2017-05-26T23:44:51.388Z,13.10
2017-05-26T23:47:20.188Z,13.00
2017-05-26T23:49:48.612Z,13.00
2017-05-26T23:52:16.267Z,13.00
2017-05-26T23:54:44.701Z,13.00
2017-05-26T23:57:12.357Z,12.90
2017-05-26T23:59:40.328Z,12.90
